createdAt,value
2022-12-03T00:01:02.293Z,47.97
2022-12-03T00:03:29.593Z,36.30
2022-12-03T00:05:56.563Z,33.30
2022-12-03T00:08:23.395Z,43.80
2022-12-03T00:10:49.946Z,38.27
2022-12-03T00:13:16.647Z,49.87
2022-12-03T00:15:44.325Z,47.63
2022-12-03T00:18:10.949Z,50.90
2022-12-03T00:20:37.546Z,41.50
2022-12-03T00:23:04.096Z,46.87
2022-12-03T00:25:30.789Z,45.70
2022-12-03T00:27:57.497Z,44.63
2022-12-03T00:30:24.155Z,44.07
2022-12-03T00:32:50.875Z,47.27
2022-12-03T00:35:17.662Z,36.37
2022-12-03T00:37:45.368Z,41.37
2022-12-03T00:40:12.532Z,43.37
2022-12-03T00:42:39.202Z,41.00
2022-12-03T00:45:07.479Z,49.97
2022-12-03T00:47:39.350Z,35.10
2022-12-03T00:50:06.808Z,46.30
2022-12-03T00:52:33.490Z,30.77
2022-12-03T00:55:00.166Z,44.00
2022-12-03T00:57:26.903Z,38.97
2022-12-03T00:59:53.574Z,30.63
2022-12-03T01:02:20.288Z,35.40
2022-12-03T01:04:47.086Z,31.83
2022-12-03T01:07:13.708Z,33.80
2022-12-03T01:09:40.263Z,36.47
2022-12-03T01:12:06.835Z,36.03
2022-12-03T01:14:33.445Z,28.67
2022-12-03T01:17:00.123Z,35.23
2022-12-03T01:19:26.805Z,30.87
2022-12-03T01:21:53.696Z,33.17
2022-12-03T01:24:20.519Z,27.53
2022-12-03T01:26:47.459Z,35.00
2022-12-03T01:29:14.488Z,37.00
2022-12-03T01:31:59.782Z,37.30
2022-12-03T01:34:26.432Z,35.17
2022-12-03T01:36:53.299Z,31.33
2022-12-03T01:39:20.252Z,42.17
2022-12-03T01:41:49.008Z,35.60
2022-12-03T01:44:30.175Z,34.80
2022-12-03T01:46:59.426Z,32.97
2022-12-03T01:49:48.187Z,25.67
2022-12-03T01:52:22.433Z,40.23
2022-12-03T01:54:58.390Z,24.67
2022-12-03T01:57:29.364Z,24.07
2022-12-03T01:59:58.403Z,31.53
2022-12-03T02:02:28.340Z,25.67
2022-12-03T02:04:55.817Z,24.13
2022-12-03T02:07:31.003Z,25.50
2022-12-03T02:09:59.716Z,28.67
2022-12-03T02:12:36.552Z,34.40
2022-12-03T02:15:04.853Z,31.83
2022-12-03T02:17:32.241Z,55.40
2022-12-03T02:20:01.686Z,29.27
2022-12-03T02:22:46.830Z,23.13
2022-12-03T02:25:16.985Z,22.20
2022-12-03T02:27:44.543Z,20.43
2022-12-03T02:30:15.352Z,30.70
2022-12-03T02:32:42.373Z,22.90
2022-12-03T02:35:21.215Z,26.30
2022-12-03T02:37:52.666Z,14.97
2022-12-03T02:40:22.600Z,16.57
2022-12-03T02:42:51.430Z,19.30
2022-12-03T02:45:22.359Z,17.80
2022-12-03T02:47:54.336Z,19.17
2022-12-03T02:50:26.332Z,16.70
2022-12-03T02:52:56.114Z,17.13
2022-12-03T02:55:23.916Z,16.80
2022-12-03T02:57:51.564Z,22.60
2022-12-03T03:00:20.682Z,16.57
2022-12-03T03:02:47.340Z,15.80
2022-12-03T03:05:15.261Z,19.60
2022-12-03T03:07:42.311Z,16.77
2022-12-03T03:10:11.936Z,15.60
2022-12-03T03:12:39.584Z,19.40
2022-12-03T03:15:07.635Z,14.57
2022-12-03T03:17:34.329Z,17.37
2022-12-03T03:20:01.997Z,16.20
2022-12-03T03:22:33.343Z,16.73
2022-12-03T03:25:00.022Z,15.40
2022-12-03T03:27:28.201Z,18.27
2022-12-03T03:29:57.150Z,18.17
2022-12-03T03:32:24.961Z,17.33
2022-12-03T03:34:51.927Z,16.70
2022-12-03T03:37:18.976Z,18.00
2022-12-03T03:39:45.582Z,24.13
2022-12-03T03:42:12.207Z,23.70
2022-12-03T03:44:39.035Z,20.40
2022-12-03T03:47:06.102Z,19.40
2022-12-03T03:49:32.985Z,22.00
2022-12-03T03:51:59.788Z,17.97
2022-12-03T03:54:27.473Z,14.33
2022-12-03T03:56:54.078Z,19.30
2022-12-03T03:59:21.237Z,15.90
2022-12-03T04:01:47.974Z,21.77
2022-12-03T04:04:24.048Z,19.17
2022-12-03T04:06:50.710Z,19.73
2022-12-03T04:09:17.299Z,19.50
2022-12-03T04:12:02.578Z,20.23
2022-12-03T04:14:31.315Z,24.53
2022-12-03T04:16:57.931Z,17.63
2022-12-03T04:19:24.568Z,11.23
2022-12-03T04:22:09.736Z,13.00
2022-12-03T04:24:36.273Z,18.40
2022-12-03T04:27:21.284Z,14.00
2022-12-03T04:29:47.845Z,17.67
2022-12-03T04:32:32.895Z,16.50
2022-12-03T04:35:18.207Z,10.77
2022-12-03T04:37:44.908Z,17.87
2022-12-03T04:40:30.967Z,13.33
2022-12-03T04:42:57.589Z,11.40
2022-12-03T04:45:24.166Z,13.60
2022-12-03T04:47:50.779Z,16.17
2022-12-03T04:50:17.358Z,21.80
2022-12-03T04:52:43.890Z,15.37
2022-12-03T04:55:10.764Z,13.50
2022-12-03T04:57:37.302Z,21.53
2022-12-03T05:00:05.526Z,17.90
2022-12-03T05:02:32.171Z,19.80
2022-12-03T05:04:58.738Z,19.90
2022-12-03T05:07:25.381Z,28.63
2022-12-03T05:09:52.049Z,19.67
2022-12-03T05:12:18.654Z,19.87
2022-12-03T05:14:45.244Z,20.60
2022-12-03T05:17:11.827Z,17.50
2022-12-03T05:19:57.039Z,14.23
2022-12-03T05:22:23.641Z,18.43
2022-12-03T05:24:50.270Z,16.20
2022-12-03T05:27:23.144Z,15.13
2022-12-03T05:29:50.414Z,16.20
2022-12-03T05:32:18.337Z,16.57
2022-12-03T05:34:44.948Z,19.13
2022-12-03T05:37:11.499Z,15.73
2022-12-03T05:39:38.182Z,13.07
2022-12-03T05:42:24.068Z,16.90
2022-12-03T05:44:50.662Z,16.10
2022-12-03T05:47:17.202Z,16.07
2022-12-03T05:49:43.859Z,15.43
2022-12-03T05:52:10.509Z,16.20
2022-12-03T05:54:37.067Z,17.20
2022-12-03T05:57:04.698Z,17.33
2022-12-03T05:59:31.211Z,13.57
2022-12-03T06:01:57.781Z,19.13
2022-12-03T06:04:24.441Z,18.47
2022-12-03T06:06:50.984Z,19.00
2022-12-03T06:09:17.541Z,20.10
2022-12-03T06:11:44.161Z,22.00
2022-12-03T06:14:10.678Z,16.43
2022-12-03T06:16:37.283Z,18.20
2022-12-03T06:19:03.883Z,17.37
2022-12-03T06:21:30.408Z,23.43
2022-12-03T06:23:57.017Z,21.47
2022-12-03T06:26:23.572Z,16.20
2022-12-03T06:28:50.268Z,21.40
2022-12-03T06:31:16.877Z,19.30
2022-12-03T06:33:43.609Z,26.27
2022-12-03T06:36:10.235Z,25.00
2022-12-03T06:38:36.884Z,20.27
2022-12-03T06:41:03.471Z,18.47
2022-12-03T06:43:30.971Z,21.90
2022-12-03T06:45:57.596Z,18.70
2022-12-03T06:48:24.158Z,14.10
2022-12-03T06:50:50.696Z,21.70
2022-12-03T06:53:17.225Z,17.63
2022-12-03T06:55:43.875Z,18.17
2022-12-03T06:58:10.570Z,23.00
2022-12-03T07:00:37.088Z,14.77
2022-12-03T07:03:03.874Z,18.30
2022-12-03T07:05:30.514Z,16.23
2022-12-03T07:07:57.194Z,19.30
2022-12-03T07:10:23.831Z,16.07
2022-12-03T07:12:50.355Z,17.53
2022-12-03T07:15:17.039Z,20.30
2022-12-03T07:17:43.605Z,17.47
2022-12-03T07:20:10.893Z,18.27
2022-12-03T07:22:37.462Z,19.33
2022-12-03T07:25:05.379Z,18.40
2022-12-03T07:27:31.967Z,25.23
2022-12-03T07:29:58.670Z,23.50
2022-12-03T07:32:26.807Z,20.27
2022-12-03T07:34:53.515Z,24.73
2022-12-03T07:37:23.316Z,20.97
2022-12-03T07:39:52.326Z,20.97
2022-12-03T07:42:18.873Z,19.30
2022-12-03T07:44:45.415Z,20.87
2022-12-03T07:47:12.032Z,16.30
2022-12-03T07:49:38.666Z,16.20
2022-12-03T07:52:07.100Z,15.93
2022-12-03T07:54:33.892Z,20.97
2022-12-03T07:57:01.803Z,18.00
2022-12-03T07:59:29.404Z,18.93
2022-12-03T08:01:56.250Z,19.47
2022-12-03T08:04:22.851Z,17.60
2022-12-03T08:06:49.452Z,21.90
2022-12-03T08:09:16.609Z,14.90
2022-12-03T08:11:46.985Z,20.10
2022-12-03T08:14:15.632Z,16.77
2022-12-03T08:16:44.390Z,23.65
2022-12-03T08:19:12.278Z,17.30
2022-12-03T08:21:39.818Z,23.60
2022-12-03T08:24:12.860Z,21.57
2022-12-03T08:26:39.483Z,22.43
2022-12-03T08:29:11.478Z,22.90
2022-12-03T08:31:39.173Z,18.90
2022-12-03T08:34:20.973Z,20.90
2022-12-03T08:36:50.825Z,17.63
2022-12-03T08:39:37.819Z,21.53
2022-12-03T08:42:22.942Z,26.47
2022-12-03T08:44:49.531Z,27.27
2022-12-03T08:47:21.675Z,21.77
2022-12-03T08:50:06.391Z,21.23
2022-12-03T08:52:34.746Z,25.97
2022-12-03T08:55:28.869Z,21.67
2022-12-03T08:57:55.477Z,23.87
2022-12-03T09:00:24.139Z,26.77
2022-12-03T09:02:59.506Z,19.20
2022-12-03T09:05:32.372Z,20.50
2022-12-03T09:07:59.483Z,23.63
2022-12-03T09:10:26.120Z,22.30
2022-12-03T09:12:53.063Z,24.50
2022-12-03T09:15:19.561Z,19.57
2022-12-03T09:17:46.099Z,23.10
2022-12-03T09:20:13.114Z,24.63
2022-12-03T09:22:39.756Z,26.33
2022-12-03T09:25:06.941Z,23.67
2022-12-03T09:27:33.483Z,26.20
2022-12-03T09:29:59.993Z,19.20
2022-12-03T09:32:26.823Z,13.87
2022-12-03T09:34:53.916Z,18.47
2022-12-03T09:37:22.146Z,14.33
2022-12-03T09:39:49.069Z,16.87
2022-12-03T09:42:15.891Z,24.17
2022-12-03T09:44:42.526Z,20.90
2022-12-03T09:47:09.296Z,23.00
2022-12-03T09:49:38.475Z,16.67
2022-12-03T09:52:06.250Z,19.60
2022-12-03T09:54:33.730Z,24.83
2022-12-03T09:57:02.575Z,22.83
2022-12-03T09:59:34.661Z,21.30
2022-12-03T10:02:02.880Z,17.40
2022-12-03T10:04:29.989Z,16.47
2022-12-03T10:06:58.335Z,19.30
2022-12-03T10:09:28.055Z,22.60
2022-12-03T10:11:59.611Z,22.27
2022-12-03T10:14:27.527Z,26.80
2022-12-03T10:17:11.812Z,34.63
2022-12-03T10:19:39.560Z,26.20
2022-12-03T10:22:06.083Z,20.30
2022-12-03T10:24:34.403Z,23.50
2022-12-03T10:27:04.111Z,32.63
2022-12-03T10:29:34.799Z,28.40
2022-12-03T10:32:07.520Z,23.00
2022-12-03T10:34:42.067Z,23.23
2022-12-03T10:37:20.270Z,36.20
2022-12-03T10:39:57.677Z,32.00
2022-12-03T10:42:30.173Z,23.67
2022-12-03T10:45:20.102Z,23.23
2022-12-03T10:48:19.032Z,21.70
2022-12-03T10:50:55.466Z,26.70
2022-12-03T10:53:24.286Z,23.80
2022-12-03T10:55:52.559Z,25.90
2022-12-03T10:58:23.155Z,28.47
2022-12-03T11:00:52.551Z,28.63
2022-12-03T11:03:27.759Z,20.97
2022-12-03T11:05:56.138Z,28.07
2022-12-03T11:08:26.792Z,25.70
2022-12-03T11:11:18.096Z,41.23
2022-12-03T11:13:50.972Z,28.47
2022-12-03T11:16:39.290Z,22.57
2022-12-03T11:19:17.326Z,21.07
2022-12-03T11:22:05.674Z,25.83
2022-12-03T11:24:40.192Z,23.50
2022-12-03T11:27:09.641Z,24.60
2022-12-03T11:29:59.324Z,24.80
2022-12-03T11:32:38.134Z,20.97
2022-12-03T11:35:15.051Z,29.17
2022-12-03T11:37:41.709Z,29.77
2022-12-03T11:40:17.183Z,29.23
2022-12-03T11:42:46.031Z,28.67
2022-12-03T11:45:28.443Z,24.27
2022-12-03T11:48:13.105Z,22.13
2022-12-03T11:50:52.332Z,14.07
2022-12-03T11:53:26.880Z,25.43
2022-12-03T11:56:11.146Z,24.93
2022-12-03T11:58:42.349Z,23.60
2022-12-03T12:01:09.149Z,20.67
2022-12-03T12:03:42.313Z,19.60
2022-12-03T12:06:14.537Z,25.90
2022-12-03T12:09:03.609Z,23.40
2022-12-03T12:11:33.065Z,26.93
2022-12-03T12:14:09.900Z,23.23
2022-12-03T12:16:50.928Z,24.00
2022-12-03T12:19:38.477Z,26.73
2022-12-03T12:22:16.299Z,20.73
2022-12-03T12:24:46.896Z,23.20
2022-12-03T12:27:15.315Z,21.93
2022-12-03T12:29:45.713Z,23.83
2022-12-03T12:32:15.233Z,26.60
2022-12-03T12:34:47.295Z,35.83
2022-12-03T12:37:31.499Z,31.10
2022-12-03T12:39:58.507Z,30.30
2022-12-03T12:42:35.666Z,25.03
2022-12-03T12:45:08.105Z,23.07
2022-12-03T12:47:35.497Z,39.60
2022-12-03T12:50:09.288Z,28.40
2022-12-03T12:52:36.722Z,27.20
2022-12-03T12:55:09.362Z,22.80
2022-12-03T12:57:35.873Z,30.20
2022-12-03T13:00:04.704Z,22.47
2022-12-03T13:02:31.570Z,20.80
2022-12-03T13:04:58.164Z,18.77
2022-12-03T13:07:25.880Z,22.37
2022-12-03T13:09:55.744Z,18.47
2022-12-03T13:12:23.647Z,23.83
2022-12-03T13:14:52.181Z,23.13
2022-12-03T13:17:24.284Z,22.57
2022-12-03T13:19:58.327Z,19.43
2022-12-03T13:22:31.864Z,21.40
2022-12-03T13:25:27.947Z,31.27
2022-12-03T13:28:05.118Z,22.97
2022-12-03T13:30:31.606Z,19.27
2022-12-03T13:32:58.244Z,22.70
2022-12-03T13:35:35.182Z,20.90
2022-12-03T13:38:03.022Z,28.80
2022-12-03T13:40:32.877Z,22.70
2022-12-03T13:42:59.509Z,17.20
2022-12-03T13:45:40.957Z,24.03
2022-12-03T13:48:23.160Z,25.47
2022-12-03T13:50:51.571Z,18.03
2022-12-03T13:53:35.463Z,31.10
2022-12-03T13:56:15.551Z,23.83
2022-12-03T13:58:42.135Z,23.63
2022-12-03T14:01:08.729Z,19.93
2022-12-03T14:03:35.466Z,20.30
2022-12-03T14:06:02.052Z,34.00
2022-12-03T14:08:29.698Z,26.60
2022-12-03T14:11:00.395Z,21.97
2022-12-03T14:13:27.484Z,20.90
2022-12-03T14:15:54.010Z,19.20
2022-12-03T14:18:20.652Z,20.40
2022-12-03T14:20:48.148Z,19.87
2022-12-03T14:23:15.108Z,19.30
2022-12-03T14:25:43.886Z,23.53
2022-12-03T14:28:11.235Z,23.47
2022-12-03T14:30:37.877Z,23.00
2022-12-03T14:33:04.665Z,23.47
2022-12-03T14:35:31.195Z,27.50
2022-12-03T14:37:57.741Z,28.93
2022-12-03T14:40:24.357Z,18.70
2022-12-03T14:42:50.987Z,33.80
2022-12-03T14:45:17.605Z,28.67
2022-12-03T14:47:44.173Z,33.13
2022-12-03T14:50:14.271Z,31.00
2022-12-03T14:52:41.334Z,28.80
2022-12-03T14:55:08.322Z,27.97
2022-12-03T14:57:36.748Z,23.33
2022-12-03T15:00:05.558Z,31.03
2022-12-03T15:02:34.357Z,20.83
2022-12-03T15:05:01.137Z,28.20
2022-12-03T15:07:28.294Z,32.90
2022-12-03T15:09:55.163Z,40.63
2022-12-03T15:12:21.791Z,26.80
2022-12-03T15:14:48.396Z,28.60
2022-12-03T15:17:15.000Z,30.47
2022-12-03T15:19:41.611Z,31.70
2022-12-03T15:22:08.179Z,24.60
2022-12-03T15:24:34.851Z,36.70
2022-12-03T15:27:01.396Z,33.37
2022-12-03T15:29:27.963Z,35.30
2022-12-03T15:31:54.754Z,39.43
2022-12-03T15:34:23.127Z,37.83
2022-12-03T15:36:50.053Z,34.77
2022-12-03T15:39:16.560Z,25.50
2022-12-03T15:41:43.114Z,38.10
2022-12-03T15:44:09.684Z,25.37
2022-12-03T15:46:36.264Z,33.37
2022-12-03T15:49:03.098Z,36.37
2022-12-03T15:51:29.659Z,28.47
2022-12-03T15:53:56.203Z,29.40
2022-12-03T15:56:22.767Z,33.10
2022-12-03T15:58:49.295Z,27.33
2022-12-03T16:01:18.252Z,24.23
2022-12-03T16:03:45.117Z,24.57
2022-12-03T16:06:12.557Z,25.57
2022-12-03T16:08:39.131Z,23.47
2022-12-03T16:11:05.884Z,25.80
2022-12-03T16:13:32.462Z,31.90
2022-12-03T16:15:59.958Z,30.20
2022-12-03T16:18:26.684Z,29.27
2022-12-03T16:20:53.289Z,24.90
2022-12-03T16:23:19.842Z,28.07
2022-12-03T16:25:46.446Z,27.67
2022-12-03T16:28:13.009Z,30.27
2022-12-03T16:30:39.651Z,23.47
2022-12-03T16:33:06.214Z,32.40
2022-12-03T16:35:32.800Z,39.20
2022-12-03T16:37:59.314Z,30.93
2022-12-03T16:40:26.767Z,25.60
2022-12-03T16:42:53.254Z,25.60
2022-12-03T16:45:22.689Z,22.10
2022-12-03T16:47:49.991Z,22.40
2022-12-03T16:50:24.476Z,25.07
2022-12-03T16:52:55.667Z,24.77
2022-12-03T16:55:22.296Z,25.27
2022-12-03T16:57:49.080Z,29.10
2022-12-03T17:00:16.291Z,31.60
2022-12-03T17:02:42.899Z,26.60
2022-12-03T17:05:09.490Z,29.33
2022-12-03T17:07:36.125Z,26.07
2022-12-03T17:10:02.776Z,31.33
2022-12-03T17:12:42.125Z,28.67
2022-12-03T17:15:14.801Z,30.43
2022-12-03T17:17:41.346Z,34.93
2022-12-03T17:20:08.674Z,31.13
2022-12-03T17:22:35.390Z,26.40
2022-12-03T17:25:01.966Z,26.90
2022-12-03T17:27:29.484Z,22.77
2022-12-03T17:29:56.348Z,33.60
2022-12-03T17:32:23.069Z,27.10
2022-12-03T17:34:49.602Z,28.40
2022-12-03T17:37:16.172Z,21.43
2022-12-03T17:39:42.700Z,20.10
2022-12-03T17:42:09.254Z,20.00
2022-12-03T17:44:35.774Z,23.47
2022-12-03T17:47:02.369Z,32.23
2022-12-03T17:49:31.650Z,25.67
2022-12-03T17:51:58.308Z,21.03
2022-12-03T17:54:34.114Z,19.77
2022-12-03T17:57:11.739Z,24.67
2022-12-03T17:59:38.271Z,25.20
2022-12-03T18:02:04.891Z,27.80
2022-12-03T18:04:31.593Z,22.90
2022-12-03T18:07:02.140Z,22.70
2022-12-03T18:09:29.055Z,26.43
2022-12-03T18:11:55.797Z,22.67
2022-12-03T18:14:22.346Z,26.50
2022-12-03T18:16:48.857Z,25.13
2022-12-03T18:19:15.653Z,35.10
2022-12-03T18:21:42.292Z,24.30
2022-12-03T18:24:09.179Z,31.60
2022-12-03T18:26:35.769Z,34.13
2022-12-03T18:29:02.557Z,27.67
2022-12-03T18:31:29.172Z,30.13
2022-12-03T18:33:55.809Z,21.27
2022-12-03T18:36:25.713Z,21.87
2022-12-03T18:38:55.198Z,15.07
2022-12-03T18:41:25.215Z,22.07
2022-12-03T18:43:52.098Z,22.13
2022-12-03T18:49:06.608Z,26.47
2022-12-03T18:51:33.123Z,21.93
2022-12-03T18:53:59.652Z,27.70
2022-12-03T18:56:26.229Z,21.20
2022-12-03T18:58:52.790Z,27.73
2022-12-03T19:01:22.455Z,26.80
2022-12-03T19:03:49.809Z,25.00
2022-12-03T19:06:19.255Z,24.67
2022-12-03T19:08:48.188Z,23.60
2022-12-03T19:11:15.372Z,23.73
2022-12-03T19:13:42.368Z,24.30
2022-12-03T19:16:10.537Z,24.87
2022-12-03T19:18:37.563Z,19.57
2022-12-03T19:21:12.773Z,26.60
2022-12-03T19:23:39.997Z,23.73
2022-12-03T19:26:09.109Z,25.67
2022-12-03T19:28:36.190Z,19.67
2022-12-03T19:31:09.031Z,19.93
2022-12-03T19:33:36.267Z,22.03
2022-12-03T19:36:05.349Z,16.20
2022-12-03T19:38:32.620Z,23.17
2022-12-03T19:41:08.240Z,21.07
2022-12-03T19:43:36.511Z,18.53
2022-12-03T19:46:05.192Z,36.43
2022-12-03T19:48:32.544Z,30.80
2022-12-03T19:51:19.736Z,19.90
2022-12-03T19:53:47.932Z,24.10
2022-12-03T19:56:17.171Z,28.53
2022-12-03T19:58:45.581Z,21.53
2022-12-03T20:01:15.440Z,18.10
2022-12-03T20:03:44.771Z,18.83
2022-12-03T20:06:12.483Z,19.90
2022-12-03T20:08:39.819Z,27.40
2022-12-03T20:11:16.273Z,22.90
2022-12-03T20:13:43.925Z,22.60
2022-12-03T20:16:13.887Z,22.90
2022-12-03T20:18:45.561Z,18.40
2022-12-03T20:21:14.318Z,23.57
2022-12-03T20:23:41.814Z,24.03
2022-12-03T20:26:09.747Z,26.97
2022-12-03T20:28:36.640Z,25.13
2022-12-03T20:31:09.578Z,22.10
2022-12-03T20:33:38.118Z,21.93
2022-12-03T20:36:05.029Z,20.00
2022-12-03T20:38:32.018Z,21.40
2022-12-03T20:41:03.117Z,27.40
2022-12-03T20:43:29.809Z,25.13
2022-12-03T20:46:02.385Z,17.30
2022-12-03T20:48:29.699Z,19.10
2022-12-03T20:50:56.231Z,22.60
2022-12-03T20:53:25.383Z,23.43
2022-12-03T20:55:56.709Z,19.60
2022-12-03T20:58:23.255Z,23.63
2022-12-03T21:00:49.948Z,16.00
2022-12-03T21:03:16.652Z,23.30
2022-12-03T21:05:43.968Z,16.40
2022-12-03T21:08:11.693Z,24.77
2022-12-03T21:10:46.598Z,19.07
2022-12-03T21:13:18.164Z,23.00
2022-12-03T21:15:45.525Z,20.90
2022-12-03T21:18:14.724Z,20.67
2022-12-03T21:20:44.064Z,18.50
2022-12-03T21:23:11.255Z,29.70
2022-12-03T21:25:38.800Z,24.30
2022-12-03T21:28:07.259Z,23.70
2022-12-03T21:30:37.676Z,22.33
2022-12-03T21:33:04.495Z,17.17
2022-12-03T21:35:31.307Z,21.23
2022-12-03T21:37:58.250Z,19.63
2022-12-03T21:40:25.001Z,20.80
2022-12-03T21:42:51.719Z,23.40
2022-12-03T21:45:18.538Z,22.20
2022-12-03T21:47:48.649Z,19.00
2022-12-03T21:50:15.540Z,16.63
2022-12-03T21:52:42.215Z,19.20
2022-12-03T21:55:11.934Z,24.40
2022-12-03T21:57:38.636Z,19.77
2022-12-03T22:00:08.223Z,20.40
2022-12-03T22:02:43.895Z,16.97
2022-12-03T22:05:11.874Z,21.87
2022-12-03T22:07:39.784Z,16.73
2022-12-03T22:10:15.511Z,18.03
2022-12-03T22:12:45.255Z,19.37
2022-12-03T22:15:18.113Z,18.37
2022-12-03T22:17:51.550Z,17.70
2022-12-03T22:20:18.359Z,21.77
2022-12-03T22:22:48.046Z,22.60
2022-12-03T22:25:17.047Z,20.03
2022-12-03T22:27:43.735Z,16.43
2022-12-03T22:30:10.618Z,17.20
2022-12-03T22:32:37.267Z,18.07
2022-12-03T22:35:04.152Z,24.93
2022-12-03T22:37:32.744Z,15.40
2022-12-03T22:40:05.473Z,20.87
2022-12-03T22:42:33.288Z,19.80
2022-12-03T22:47:54.010Z,20.33
2022-12-03T22:50:20.626Z,24.37
2022-12-03T22:52:47.281Z,20.80
2022-12-03T22:55:13.980Z,16.90
2022-12-03T22:57:40.587Z,15.77
2022-12-03T23:00:12.976Z,17.03
2022-12-03T23:02:39.738Z,20.90
2022-12-03T23:05:06.965Z,20.33
2022-12-03T23:07:33.589Z,18.50
2022-12-03T23:10:00.249Z,15.13
2022-12-03T23:12:29.821Z,22.70
2022-12-03T23:14:56.403Z,19.63
2022-12-03T23:17:24.922Z,20.77
2022-12-03T23:19:51.871Z,23.77
2022-12-03T23:22:18.598Z,18.90
2022-12-03T23:24:45.666Z,19.80
2022-12-03T23:27:12.278Z,21.30
2022-12-03T23:29:38.889Z,19.87
2022-12-03T23:32:05.638Z,18.13
2022-12-03T23:34:32.490Z,17.87
2022-12-03T23:36:59.118Z,16.83
2022-12-03T23:39:25.697Z,17.37
2022-12-03T23:41:52.453Z,15.87
2022-12-03T23:44:19.061Z,20.20
2022-12-03T23:46:45.744Z,19.87
2022-12-03T23:49:12.349Z,21.67
2022-12-03T23:51:38.874Z,16.17
2022-12-03T23:54:05.702Z,18.17
2022-12-03T23:56:32.479Z,17.43
2022-12-03T23:58:59.144Z,18.27
